Terminal Aerodrome Forecast
Issued by NWS Charleston, WV

Current Version | Previous Version | Graphics & Text | Print | Product List | Glossary On
Versions: 1 2 3 4 5 6 7 8 9 10 11 12 13 14 15 16 17 18 19 20 21 22 23 24 25 26 27 28
000
FTUS41 KRLX 070536
TAFCRW
TAF
KCRW 070536Z 0706/0806 VRB03KT 5SM BR SCT001
     FM070800 VRB03KT 2SM BR SCT001
     FM071100 18004KT 4SM BR HZ SCT035 BKN250
     FM071300 21006KT P6SM BKN030
     FM071700 23010G17KT P6SM BKN035
     FM072100 23010G17KT P6SM VCTS BKN040CB BKN100
     FM080000 19005KT 4SM TSRA BR BKN035CB BKN080
     FM080300 17004KT 3SM SHRA BR VCTS BKN040CB BKN080=

USA.gov is the U.S. government's official web portal to all federal, state and local government web resources and services.